createdAt,value
2023-03-06T00:00:49.199Z,61.10
2023-03-06T00:03:15.502Z,60.71
2023-03-06T00:05:41.829Z,60.57
2023-03-06T00:08:08.141Z,60.19
2023-03-06T00:10:34.429Z,61.07
2023-03-06T00:13:00.752Z,61.22
2023-03-06T00:15:28.240Z,60.81
2023-03-06T00:17:54.645Z,60.29
2023-03-06T00:20:20.957Z,60.38
2023-03-06T00:22:47.254Z,60.19
2023-03-06T00:25:13.545Z,60.44
2023-03-06T00:27:40.784Z,60.67
2023-03-06T00:30:07.343Z,61.27
2023-03-06T00:32:33.712Z,60.34
2023-03-06T00:35:00.068Z,60.75
2023-03-06T00:37:26.400Z,60.98
2023-03-06T00:39:52.695Z,60.51
2023-03-06T00:42:19.016Z,62.27
2023-03-06T00:44:45.307Z,61.84
2023-03-06T00:47:11.585Z,61.65
2023-03-06T00:49:37.910Z,61.02
2023-03-06T00:52:04.216Z,62.38
2023-03-06T00:54:30.510Z,61.65
2023-03-06T00:56:56.865Z,62.04
2023-03-06T00:59:23.156Z,62.26
2023-03-06T01:01:49.470Z,63.40
2023-03-06T01:04:15.814Z,63.32
2023-03-06T01:06:42.111Z,62.65
2023-03-06T01:09:08.410Z,62.65
2023-03-06T01:11:34.718Z,62.36
2023-03-06T01:14:01.006Z,62.45
2023-03-06T01:16:27.300Z,62.92
2023-03-06T01:18:53.706Z,63.16
2023-03-06T01:21:19.996Z,63.38
2023-03-06T01:23:46.284Z,63.04
2023-03-06T01:26:12.609Z,63.80
2023-03-06T01:28:38.884Z,64.11
2023-03-06T01:31:05.170Z,65.64
2023-03-06T01:33:31.482Z,63.69
2023-03-06T01:35:57.802Z,65.47
2023-03-06T01:38:24.112Z,64.61
2023-03-06T01:40:50.445Z,64.24
2023-03-06T01:43:16.736Z,64.50
2023-03-06T01:45:43.149Z,63.70
2023-03-06T01:48:09.474Z,63.56
2023-03-06T01:50:35.793Z,64.59
2023-03-06T01:53:02.099Z,64.27
2023-03-06T01:55:28.410Z,64.60
2023-03-06T01:57:54.695Z,65.97
2023-03-06T02:00:21.003Z,65.26
2023-03-06T02:02:47.362Z,64.84
2023-03-06T02:05:13.673Z,65.57
2023-03-06T02:07:39.965Z,66.40
2023-03-06T02:10:06.270Z,66.21
2023-03-06T02:12:32.551Z,66.34
2023-03-06T02:14:58.842Z,65.72
2023-03-06T02:17:25.144Z,66.30
2023-03-06T02:19:51.438Z,67.00
2023-03-06T02:22:17.741Z,67.75
2023-03-06T02:24:44.084Z,67.20
2023-03-06T02:27:10.390Z,66.46
2023-03-06T02:29:42.810Z,66.81
2023-03-06T02:32:09.162Z,67.06
2023-03-06T02:34:35.469Z,67.36
2023-03-06T02:37:01.751Z,68.03
2023-03-06T02:39:28.062Z,67.41
2023-03-06T02:41:54.365Z,66.89
2023-03-06T02:44:20.661Z,66.22
2023-03-06T02:46:46.975Z,66.14
2023-03-06T02:49:13.261Z,67.25
2023-03-06T02:51:39.555Z,66.85
2023-03-06T02:54:05.895Z,66.74
2023-03-06T02:56:32.194Z,67.00
2023-03-06T02:58:58.491Z,66.80
2023-03-06T03:01:24.836Z,67.08
2023-03-06T03:03:51.198Z,67.20
2023-03-06T03:06:17.499Z,66.97
2023-03-06T03:08:43.833Z,67.48
2023-03-06T03:11:10.121Z,66.99
2023-03-06T03:13:36.419Z,67.22
2023-03-06T03:16:02.790Z,68.92
2023-03-06T03:18:29.096Z,68.89
2023-03-06T03:20:55.399Z,69.16
2023-03-06T03:23:21.712Z,68.41
2023-03-06T03:25:48.000Z,67.79
2023-03-06T03:28:14.289Z,69.12
2023-03-06T03:30:40.596Z,69.93
2023-03-06T03:33:06.888Z,69.59
2023-03-06T03:35:33.223Z,69.63
2023-03-06T03:37:59.551Z,67.61
2023-03-06T03:40:25.854Z,68.28
2023-03-06T03:42:52.164Z,67.23
2023-03-06T03:45:18.490Z,68.24
2023-03-06T03:47:44.780Z,68.10
2023-03-06T03:50:11.056Z,69.27
2023-03-06T03:52:37.372Z,67.37
2023-03-06T03:55:03.662Z,66.71
2023-03-06T03:57:29.956Z,67.36
2023-03-06T03:59:56.272Z,68.21
2023-03-06T04:02:22.642Z,68.25
2023-03-06T04:04:49.017Z,69.74
2023-03-06T04:07:15.350Z,68.95
2023-03-06T04:09:41.644Z,67.95
2023-03-06T04:12:07.940Z,67.86
2023-03-06T04:14:34.314Z,66.89
2023-03-06T04:17:00.604Z,66.55
2023-03-06T04:19:26.907Z,67.53
2023-03-06T04:21:53.218Z,66.36
2023-03-06T04:24:19.520Z,67.02
2023-03-06T04:26:45.826Z,66.66
2023-03-06T04:29:12.157Z,65.30
2023-03-06T04:31:38.516Z,65.14
2023-03-06T04:34:04.845Z,67.50
2023-03-06T04:36:31.152Z,66.84
2023-03-06T04:38:57.579Z,65.96
2023-03-06T04:41:23.927Z,64.89
2023-03-06T04:43:50.439Z,65.05
2023-03-06T04:46:16.731Z,65.38
2023-03-06T04:48:43.014Z,67.43
2023-03-06T04:51:09.325Z,66.58
2023-03-06T04:53:35.607Z,66.64
2023-03-06T04:56:01.900Z,67.69
2023-03-06T04:58:28.204Z,67.28
2023-03-06T05:00:54.602Z,67.66
2023-03-06T05:03:20.908Z,68.59
2023-03-06T05:05:47.216Z,66.57
2023-03-06T05:08:13.512Z,66.53
2023-03-06T05:10:39.807Z,68.04
2023-03-06T05:13:06.140Z,67.78
2023-03-06T05:15:32.439Z,67.67
2023-03-06T05:17:58.731Z,67.10
2023-03-06T05:20:25.068Z,67.16
2023-03-06T05:22:51.360Z,66.26
2023-03-06T05:25:17.646Z,66.58
2023-03-06T05:27:43.944Z,67.25
2023-03-06T05:30:10.239Z,68.31
2023-03-06T05:32:36.613Z,67.54
2023-03-06T05:35:02.943Z,68.33
2023-03-06T05:37:30.687Z,66.84
2023-03-06T05:39:57.162Z,66.92
2023-03-06T05:42:23.469Z,66.19
2023-03-06T05:44:49.773Z,67.02
2023-03-06T05:47:16.074Z,66.36
2023-03-06T05:49:42.386Z,65.96
2023-03-06T05:52:08.680Z,67.49
2023-03-06T05:54:34.989Z,66.13
2023-03-06T05:57:01.313Z,65.99
2023-03-06T05:59:27.611Z,65.58
2023-03-06T06:01:53.890Z,66.94
2023-03-06T06:04:20.203Z,66.97
2023-03-06T06:06:46.485Z,68.67
2023-03-06T06:09:13.950Z,68.99
2023-03-06T06:11:40.344Z,68.34
2023-03-06T06:14:06.637Z,69.07
2023-03-06T06:16:32.926Z,67.78
2023-03-06T06:18:59.254Z,68.07
2023-03-06T06:21:25.571Z,67.51
2023-03-06T06:23:51.862Z,67.95
2023-03-06T06:26:18.209Z,66.47
2023-03-06T06:28:44.499Z,67.72
2023-03-06T06:31:10.861Z,66.78
2023-03-06T06:33:37.202Z,66.80
2023-03-06T06:36:03.500Z,67.01
2023-03-06T06:38:29.778Z,66.22
2023-03-06T06:41:30.634Z,66.40
2023-03-06T06:43:42.339Z,67.77
2023-03-06T06:46:32.346Z,66.48
2023-03-06T06:48:54.913Z,66.84
2023-03-06T06:51:21.212Z,66.50
2023-03-06T06:53:47.491Z,66.66
2023-03-06T06:56:13.995Z,66.85
2023-03-06T06:58:40.338Z,67.58
2023-03-06T07:01:06.650Z,66.47
2023-03-06T07:03:33.042Z,66.26
2023-03-06T07:05:59.389Z,66.27
2023-03-06T07:08:25.688Z,65.90
2023-03-06T07:10:51.971Z,67.09
2023-03-06T07:13:18.271Z,67.26
2023-03-06T07:15:44.625Z,68.42
2023-03-06T07:18:10.954Z,68.75
2023-03-06T07:20:37.267Z,67.53
2023-03-06T07:23:03.560Z,67.04
2023-03-06T07:25:29.840Z,67.15
2023-03-06T07:27:56.230Z,67.07
2023-03-06T07:30:22.589Z,67.18
2023-03-06T07:32:48.894Z,68.72
2023-03-06T07:35:20.064Z,69.12
2023-03-06T07:37:47.067Z,67.87
2023-03-06T07:40:13.364Z,67.90
2023-03-06T07:42:40.780Z,67.86
2023-03-06T07:45:07.070Z,67.83
2023-03-06T07:47:33.358Z,67.75
2023-03-06T07:49:59.682Z,69.71
2023-03-06T07:52:25.979Z,69.52
2023-03-06T07:54:52.270Z,70.10
2023-03-06T07:57:18.583Z,68.42
2023-03-06T07:59:44.872Z,69.32
2023-03-06T08:02:11.188Z,69.67
2023-03-06T08:04:37.524Z,68.94
2023-03-06T08:07:03.834Z,70.43
2023-03-06T08:09:30.121Z,70.75
2023-03-06T08:11:56.498Z,69.89
2023-03-06T08:14:22.790Z,68.86
2023-03-06T08:16:49.073Z,69.96
2023-03-06T08:19:15.388Z,70.74
2023-03-06T08:21:41.685Z,69.37
2023-03-06T08:24:08.628Z,68.51
2023-03-06T08:26:35.027Z,66.78
2023-03-06T08:29:01.321Z,65.72
2023-03-06T08:31:27.709Z,66.17
2023-03-06T08:33:54.090Z,67.40
2023-03-06T08:36:20.391Z,65.79
2023-03-06T08:38:46.778Z,64.92
2023-03-06T08:41:13.097Z,64.69
2023-03-06T08:43:39.384Z,64.61
2023-03-06T08:46:05.725Z,65.48
2023-03-06T08:48:32.116Z,64.49
2023-03-06T08:50:58.441Z,65.88
2023-03-06T08:53:40.362Z,64.57
2023-03-06T08:56:08.224Z,64.71
2023-03-06T08:58:34.521Z,64.21
2023-03-06T09:01:00.970Z,63.23
2023-03-06T09:03:27.314Z,61.77
2023-03-06T09:05:53.614Z,60.77
2023-03-06T09:08:19.914Z,61.67
2023-03-06T09:10:46.249Z,61.51
2023-03-06T09:13:12.544Z,62.13
2023-03-06T09:15:38.838Z,62.31
2023-03-06T09:18:05.187Z,61.12
2023-03-06T09:20:31.508Z,61.91
2023-03-06T09:22:57.803Z,62.52
2023-03-06T09:25:24.114Z,62.39
2023-03-06T09:28:01.788Z,60.84
2023-03-06T09:30:31.699Z,62.29
2023-03-06T09:32:58.004Z,59.85
2023-03-06T09:35:24.350Z,60.07
2023-03-06T09:37:50.740Z,59.11
2023-03-06T09:40:17.043Z,59.59
2023-03-06T09:42:43.339Z,58.52
2023-03-06T09:45:09.643Z,57.42
2023-03-06T09:47:35.950Z,57.66
2023-03-06T09:50:02.248Z,57.48
2023-03-06T09:52:28.568Z,59.56
2023-03-06T09:54:54.860Z,58.31
2023-03-06T09:57:21.156Z,57.50
2023-03-06T09:59:47.458Z,56.99
2023-03-06T10:02:13.812Z,56.00
2023-03-06T10:04:40.193Z,54.24
2023-03-06T10:07:06.518Z,55.32
2023-03-06T10:09:32.805Z,56.38
2023-03-06T10:11:59.106Z,55.56
2023-03-06T10:14:25.442Z,54.05
2023-03-06T10:16:51.745Z,52.49
2023-03-06T10:19:18.043Z,52.18
2023-03-06T10:21:44.401Z,53.74
2023-03-06T10:24:10.708Z,53.76
2023-03-06T10:26:37.076Z,54.76
2023-03-06T10:29:03.440Z,55.78
2023-03-06T10:31:29.773Z,54.42
2023-03-06T10:33:56.094Z,54.67
2023-03-06T10:36:22.400Z,53.95
2023-03-06T10:38:48.850Z,52.54
2023-03-06T10:41:15.223Z,52.53
2023-03-06T10:43:41.563Z,54.35
2023-03-06T10:46:07.941Z,52.88
2023-03-06T10:48:34.454Z,49.76
2023-03-06T10:51:04.739Z,49.52
2023-03-06T10:53:36.012Z,51.12
2023-03-06T10:56:02.309Z,49.83
2023-03-06T10:58:29.003Z,48.91
2023-03-06T11:00:55.289Z,47.60
2023-03-06T11:03:21.597Z,49.46
2023-03-06T11:05:47.886Z,47.43
2023-03-06T11:08:14.683Z,48.03
2023-03-06T11:10:41.170Z,46.49
2023-03-06T11:13:07.496Z,45.77
2023-03-06T11:15:33.788Z,47.65
2023-03-06T11:18:00.120Z,47.86
2023-03-06T11:20:26.438Z,48.31
2023-03-06T11:22:52.727Z,48.73
2023-03-06T11:25:19.031Z,47.78
2023-03-06T11:27:45.326Z,47.72
2023-03-06T11:30:11.613Z,47.95
2023-03-06T11:32:37.972Z,46.30
2023-03-06T11:35:04.291Z,46.69
2023-03-06T11:37:30.587Z,45.34
2023-03-06T11:39:56.909Z,45.72
2023-03-06T11:42:23.197Z,47.04
2023-03-06T11:44:49.494Z,43.47
2023-03-06T11:47:15.846Z,43.64
2023-03-06T11:49:42.137Z,44.53
2023-03-06T11:52:08.732Z,42.69
2023-03-06T11:54:35.042Z,45.80
2023-03-06T11:57:01.324Z,42.92
2023-03-06T11:59:27.611Z,43.73
2023-03-06T12:01:53.958Z,44.82
2023-03-06T12:04:20.265Z,44.96
2023-03-06T12:06:46.550Z,43.00
2023-03-06T12:09:12.852Z,44.93
2023-03-06T12:11:39.147Z,41.48
2023-03-06T12:14:05.444Z,37.52
2023-03-06T12:16:31.795Z,37.86
2023-03-06T12:18:58.127Z,39.25
2023-03-06T12:21:24.404Z,34.77
2023-03-06T12:23:50.725Z,36.38
2023-03-06T12:26:17.039Z,35.40
2023-03-06T12:28:45.418Z,36.31
2023-03-06T12:31:12.292Z,35.34
2023-03-06T12:33:38.638Z,36.98
2023-03-06T12:36:05.001Z,36.69
2023-03-06T12:38:31.312Z,35.21
2023-03-06T12:40:57.597Z,36.99
2023-03-06T12:43:23.878Z,34.75
2023-03-06T12:45:50.259Z,37.26
2023-03-06T12:48:16.562Z,35.25
2023-03-06T12:50:42.846Z,35.38
2023-03-06T12:53:09.204Z,34.77
2023-03-06T12:55:35.475Z,39.43
2023-03-06T12:58:01.762Z,35.11
2023-03-06T13:00:28.064Z,35.70
2023-03-06T13:02:54.403Z,31.78
2023-03-06T13:05:20.707Z,30.87
2023-03-06T13:07:47.016Z,32.92
2023-03-06T13:10:13.365Z,34.17
2023-03-06T13:12:39.694Z,32.62
2023-03-06T13:15:05.984Z,33.24
2023-03-06T13:17:32.307Z,33.43
2023-03-06T13:19:58.592Z,33.35
2023-03-06T13:22:24.884Z,32.09
2023-03-06T13:24:54.896Z,34.01
2023-03-06T13:27:21.231Z,34.33
2023-03-06T13:29:47.530Z,33.41
2023-03-06T13:32:13.890Z,33.19
2023-03-06T13:34:40.208Z,33.23
2023-03-06T13:37:06.587Z,34.12
2023-03-06T13:39:32.871Z,36.77
2023-03-06T13:41:59.170Z,36.15
2023-03-06T13:44:25.490Z,35.33
2023-03-06T13:46:51.809Z,35.68
2023-03-06T13:49:18.107Z,35.58
2023-03-06T13:51:44.408Z,35.62
2023-03-06T13:54:10.733Z,35.51
2023-03-06T13:56:37.079Z,35.71
2023-03-06T13:59:03.432Z,36.38
2023-03-06T14:01:30.044Z,37.20
2023-03-06T14:03:56.364Z,36.49
2023-03-06T14:06:22.682Z,35.75
2023-03-06T14:08:48.967Z,37.06
2023-03-06T14:11:15.266Z,36.59
2023-03-06T14:13:47.071Z,36.94
2023-03-06T14:16:14.068Z,37.30
2023-03-06T14:18:40.384Z,37.48
2023-03-06T14:21:06.697Z,38.08
2023-03-06T14:23:32.980Z,38.29
2023-03-06T14:25:59.295Z,37.21
2023-03-06T14:28:25.593Z,38.25
2023-03-06T14:30:51.950Z,38.50
2023-03-06T14:33:18.370Z,38.45
2023-03-06T14:35:44.696Z,37.66
2023-03-06T14:38:10.994Z,38.45
2023-03-06T14:40:37.289Z,38.22
2023-03-06T14:43:03.597Z,38.80
2023-03-06T14:45:29.880Z,38.85
2023-03-06T14:47:56.195Z,38.52
2023-03-06T14:50:22.511Z,38.87
2023-03-06T14:52:48.808Z,40.08
2023-03-06T14:55:15.107Z,40.03
2023-03-06T14:57:41.418Z,41.76
2023-03-06T15:00:07.705Z,38.89
2023-03-06T15:02:34.041Z,40.00
2023-03-06T15:05:00.424Z,39.32
2023-03-06T15:07:26.730Z,40.93
2023-03-06T15:09:53.011Z,39.96
2023-03-06T15:12:19.318Z,39.99
2023-03-06T15:14:45.630Z,40.83
2023-03-06T15:17:11.926Z,39.50
2023-03-06T15:19:38.232Z,40.17
2023-03-06T15:22:04.519Z,40.73
2023-03-06T15:24:30.808Z,40.38
2023-03-06T15:26:57.121Z,40.24
2023-03-06T15:29:23.411Z,40.66
2023-03-06T15:31:49.707Z,42.17
2023-03-06T15:34:16.033Z,41.77
2023-03-06T15:36:42.343Z,42.10
2023-03-06T15:39:08.631Z,41.57
2023-03-06T15:41:34.949Z,40.93
2023-03-06T15:44:01.257Z,41.35
2023-03-06T15:46:27.544Z,41.34
2023-03-06T15:48:53.855Z,41.04
2023-03-06T15:51:20.189Z,42.29
2023-03-06T15:53:46.510Z,40.16
2023-03-06T15:56:12.815Z,39.89
2023-03-06T15:58:39.111Z,41.49
2023-03-06T16:01:05.402Z,42.51
2023-03-06T16:03:31.727Z,41.27
2023-03-06T16:05:58.026Z,41.68
2023-03-06T16:08:24.549Z,40.78
2023-03-06T16:10:50.888Z,41.40
2023-03-06T16:13:17.202Z,41.04
2023-03-06T16:15:43.492Z,41.73
2023-03-06T16:18:09.810Z,43.09
2023-03-06T16:20:36.100Z,43.66
2023-03-06T16:23:02.403Z,42.71
2023-03-06T16:25:28.726Z,43.35
2023-03-06T16:27:55.039Z,43.50
2023-03-06T16:30:21.329Z,42.78
2023-03-06T16:32:47.702Z,43.08
2023-03-06T16:35:14.006Z,44.15
2023-03-06T16:37:40.305Z,43.11
2023-03-06T16:40:06.609Z,44.97
2023-03-06T16:42:32.898Z,43.62
2023-03-06T16:44:59.219Z,43.94
2023-03-06T16:47:25.604Z,44.14
2023-03-06T16:49:51.917Z,43.64
2023-03-06T16:52:18.252Z,43.58
2023-03-06T16:54:44.840Z,42.55
2023-03-06T16:57:11.183Z,43.29
2023-03-06T16:59:37.474Z,44.05
2023-03-06T17:02:03.778Z,43.10
2023-03-06T17:04:30.063Z,43.76
2023-03-06T17:06:56.350Z,42.90
2023-03-06T17:09:22.649Z,44.44
2023-03-06T17:11:48.941Z,43.04
2023-03-06T17:14:15.226Z,42.33
2023-03-06T17:16:41.556Z,41.57
2023-03-06T17:19:07.835Z,41.44
2023-03-06T17:21:34.127Z,41.82
2023-03-06T17:24:00.421Z,42.75
2023-03-06T17:26:26.705Z,43.87
2023-03-06T17:28:52.985Z,43.73
2023-03-06T17:31:19.374Z,43.46
2023-03-06T17:33:45.713Z,44.18
2023-03-06T17:36:12.003Z,43.67
2023-03-06T17:38:38.323Z,43.14
2023-03-06T17:41:04.623Z,44.33
2023-03-06T17:43:30.910Z,43.43
2023-03-06T17:45:57.225Z,44.93
2023-03-06T17:48:23.503Z,44.33
2023-03-06T17:50:49.791Z,44.97
2023-03-06T17:53:16.098Z,44.51
2023-03-06T17:55:42.390Z,44.16
2023-03-06T17:58:10.248Z,44.45
2023-03-06T18:00:37.717Z,45.88
2023-03-06T18:03:04.019Z,45.20
2023-03-06T18:05:30.298Z,44.65
2023-03-06T18:07:56.616Z,45.77
2023-03-06T18:10:22.905Z,46.89
2023-03-06T18:12:49.240Z,45.77
2023-03-06T18:15:15.549Z,45.23
2023-03-06T18:17:41.840Z,44.60
2023-03-06T18:20:08.161Z,44.99
2023-03-06T18:22:34.509Z,46.60
2023-03-06T18:25:00.797Z,43.92
2023-03-06T18:27:27.099Z,44.64
2023-03-06T18:29:53.415Z,45.23
2023-03-06T18:32:19.760Z,46.74
2023-03-06T18:34:46.084Z,46.46
2023-03-06T18:37:12.475Z,46.12
2023-03-06T18:39:38.765Z,46.57
2023-03-06T18:42:05.053Z,46.12
2023-03-06T18:44:31.365Z,46.55
2023-03-06T18:46:57.697Z,46.56
2023-03-06T18:49:23.995Z,47.45
2023-03-06T18:51:50.289Z,46.71
2023-03-06T18:54:16.799Z,45.26
2023-03-06T18:56:43.310Z,44.94
2023-03-06T18:59:09.667Z,45.07
2023-03-06T19:01:35.950Z,44.48
2023-03-06T19:04:02.317Z,45.34
2023-03-06T19:06:28.696Z,45.78
2023-03-06T19:08:54.993Z,45.59
2023-03-06T19:11:21.307Z,46.14
2023-03-06T19:13:47.641Z,47.13
2023-03-06T19:16:13.960Z,47.60
2023-03-06T19:18:40.262Z,48.33
2023-03-06T19:21:06.566Z,47.29
2023-03-06T19:23:32.859Z,48.25
2023-03-06T19:25:59.151Z,46.41
2023-03-06T19:28:25.624Z,46.57
2023-03-06T19:30:51.917Z,47.44
2023-03-06T19:33:18.206Z,46.54
2023-03-06T19:35:44.542Z,45.98
2023-03-06T19:38:10.878Z,46.23
2023-03-06T19:40:37.295Z,46.11
2023-03-06T19:43:03.618Z,48.39
2023-03-06T19:45:29.918Z,48.17
2023-03-06T19:47:56.206Z,48.68
2023-03-06T19:50:22.522Z,49.65
2023-03-06T19:52:48.811Z,48.70
2023-03-06T19:55:15.092Z,48.14
2023-03-06T19:57:41.463Z,48.65
2023-03-06T20:00:07.755Z,48.95
2023-03-06T20:02:34.048Z,48.01
2023-03-06T20:05:00.366Z,48.73
2023-03-06T20:07:26.731Z,49.54
2023-03-06T20:09:53.020Z,48.34
2023-03-06T20:12:19.328Z,47.54
2023-03-06T20:14:45.622Z,47.56
2023-03-06T20:17:11.928Z,47.77
2023-03-06T20:19:38.462Z,46.62
2023-03-06T20:22:04.754Z,48.42
2023-03-06T20:24:31.057Z,47.95
2023-03-06T20:26:57.379Z,47.91
2023-03-06T20:29:23.668Z,48.27
2023-03-06T20:31:49.969Z,49.47
2023-03-06T20:34:16.327Z,47.55
2023-03-06T20:36:42.613Z,48.09
2023-03-06T20:39:08.941Z,47.84
2023-03-06T20:41:35.363Z,48.72
2023-03-06T20:44:01.656Z,47.74
2023-03-06T20:46:28.019Z,48.88
2023-03-06T20:48:54.387Z,48.61
2023-03-06T20:51:20.703Z,47.60
2023-03-06T20:53:46.989Z,48.27
2023-03-06T20:56:13.300Z,48.63
2023-03-06T20:58:39.677Z,47.64
2023-03-06T21:01:05.975Z,48.62
2023-03-06T21:03:32.297Z,48.19
2023-03-06T21:05:58.583Z,47.96
2023-03-06T21:08:24.886Z,47.54
2023-03-06T21:10:51.193Z,48.57
2023-03-06T21:13:17.488Z,50.43
2023-03-06T21:15:43.775Z,49.30
2023-03-06T21:18:10.087Z,49.04
2023-03-06T21:20:36.373Z,48.52
2023-03-06T21:23:02.674Z,48.62
2023-03-06T21:25:29.015Z,48.74
2023-03-06T21:27:55.319Z,47.98
2023-03-06T21:30:21.623Z,48.02
2023-03-06T21:32:47.934Z,47.93
2023-03-06T21:35:14.215Z,48.72
2023-03-06T21:37:40.505Z,48.53
2023-03-06T21:40:06.853Z,48.40
2023-03-06T21:42:33.144Z,47.67
2023-03-06T21:44:59.457Z,47.76
2023-03-06T21:47:25.754Z,47.70
2023-03-06T21:49:52.040Z,47.40
2023-03-06T21:52:18.326Z,48.18
2023-03-06T21:54:44.646Z,49.06
2023-03-06T21:57:10.957Z,49.32
2023-03-06T21:59:37.244Z,49.40
2023-03-06T22:02:03.550Z,50.54
2023-03-06T22:04:29.941Z,49.07
2023-03-06T22:06:56.298Z,48.66
2023-03-06T22:09:22.609Z,47.59
2023-03-06T22:11:48.918Z,48.68
2023-03-06T22:14:15.232Z,50.25
2023-03-06T22:16:41.581Z,47.85
2023-03-06T22:19:07.886Z,48.73
2023-03-06T22:21:34.178Z,48.53
2023-03-06T22:24:00.479Z,47.65
2023-03-06T22:26:26.783Z,48.96
2023-03-06T22:28:53.099Z,48.69
2023-03-06T22:31:25.009Z,49.74
2023-03-06T22:33:51.347Z,49.93
2023-03-06T22:36:17.636Z,51.06
2023-03-06T22:38:43.953Z,49.03
2023-03-06T22:41:10.235Z,49.32
2023-03-06T22:43:36.538Z,49.90
2023-03-06T22:46:03.072Z,50.54
2023-03-06T22:48:29.397Z,48.19
2023-03-06T22:50:55.695Z,49.35
2023-03-06T22:53:22.015Z,49.11
2023-03-06T22:55:48.304Z,49.16
2023-03-06T22:58:14.620Z,48.56
2023-03-06T23:00:40.941Z,48.41
2023-03-06T23:03:08.683Z,48.14
2023-03-06T23:05:34.989Z,47.46
2023-03-06T23:08:01.313Z,48.30
2023-03-06T23:10:27.616Z,47.22
2023-03-06T23:12:53.915Z,47.28
2023-03-06T23:15:20.230Z,47.12
2023-03-06T23:17:46.523Z,47.37
2023-03-06T23:20:12.820Z,46.81
2023-03-06T23:22:39.128Z,47.55
2023-03-06T23:25:05.437Z,47.00
2023-03-06T23:27:31.730Z,47.71
2023-03-06T23:29:58.037Z,47.83
2023-03-06T23:32:24.339Z,47.91
2023-03-06T23:34:50.638Z,46.94
2023-03-06T23:37:17.043Z,46.63
2023-03-06T23:39:43.346Z,46.78
2023-03-06T23:42:09.640Z,47.64
2023-03-06T23:44:35.950Z,46.48
2023-03-06T23:47:02.244Z,47.52
2023-03-06T23:49:28.527Z,47.22
2023-03-06T23:51:54.885Z,46.67
2023-03-06T23:54:21.181Z,47.33
2023-03-06T23:56:47.487Z,47.52
2023-03-06T23:59:13.784Z,47.81
